Time;durP1;ratioP1;P1;durP2;ratioP2;P2;SDS_P1;SDS_P2;PMS_P1;PMS_P2;Temp;Humidity;BMP_temperature;BMP_pressure;BME280_temperature;BME280_humidity;BME280_pressure;Samples;Min_cycle;Max_cycle;Signal;HPM_P1;HPM_P2
2023/07/16 00:03:43;;;;;;;2.25;1.30;;;;;;;19.40;100.00;98176.53;15284816;19;20555;-63
2023/07/16 00:09:09;;;;;;;2.10;1.05;;;;;;;19.40;100.00;98160.13;15270080;19;20018;-63
2023/07/16 00:14:33;;;;;;;2.28;1.48;;;;;;;19.36;100.00;98158.91;15286128;19;20021;-65
2023/07/16 00:20:01;;;;;;;3.17;1.80;;;;;;;19.31;100.00;98164.22;15279936;19;20049;-64
2023/07/16 00:25:26;;;;;;;2.55;1.45;;;;;;;19.30;100.00;98198.06;15280806;19;20029;-63
2023/07/16 00:30:51;;;;;;;3.75;1.80;;;;;;;19.32;100.00;98206.88;15284903;19;20106;-63
2023/07/16 00:36:19;;;;;;;3.67;1.70;;;;;;;19.27;100.00;98205.88;15282421;19;20035;-63
2023/07/16 00:41:44;;;;;;;3.60;1.50;;;;;;;19.23;100.00;98202.72;15279104;19;20023;-63
2023/07/16 00:47:09;;;;;;;1.92;1.30;;;;;;;19.19;100.00;98187.84;15282938;19;20031;-63
2023/07/16 00:52:37;;;;;;;3.13;1.60;;;;;;;19.16;100.00;98193.75;15284104;19;20039;-63
2023/07/16 00:58:05;;;;;;;2.78;1.50;;;;;;;19.12;100.00;98185.19;15279104;19;20034;-63
2023/07/16 01:03:30;;;;;;;2.03;1.50;;;;;;;19.07;100.00;98172.19;15281305;19;20014;-63
2023/07/16 01:09:06;;;;;;;2.67;1.55;;;;;;;19.00;100.00;98149.56;15277295;19;20015;-63
2023/07/16 01:14:32;;;;;;;3.47;1.70;;;;;;;18.96;100.00;98175.66;15282043;19;20476;-62
2023/07/16 01:19:57;;;;;;;2.88;1.80;;;;;;;18.96;100.00;98194.75;15276271;19;20010;-65
2023/07/16 01:25:42;;;;;;;3.15;1.70;;;;;;;19.00;100.00;98197.88;15282432;19;20622;-63
2023/07/16 01:31:11;;;;;;;1.85;1.58;;;;;;;18.98;100.00;98230.03;15273766;19;20011;-63
2023/07/16 01:36:37;;;;;;;1.58;1.13;;;;;;;18.93;100.00;98236.09;15279623;19;20058;-63
2023/07/16 01:42:02;;;;;;;2.78;1.30;;;;;;;18.95;100.00;98193.09;15277829;19;20006;-63
2023/07/16 01:47:41;;;;;;;1.75;1.02;;;;;;;18.96;100.00;98227.53;15277618;19;20018;-63
2023/07/16 01:53:06;;;;;;;2.33;1.40;;;;;;;18.88;100.00;98227.72;15277131;19;20086;-65
2023/07/16 01:58:31;;;;;;;1.65;1.00;;;;;;;18.87;100.00;98216.00;15275691;19;20370;-63
2023/07/16 02:03:59;;;;;;;1.23;0.95;;;;;;;18.85;100.00;98218.09;15273769;19;20143;-66
2023/07/16 02:09:25;;;;;;;2.53;1.00;;;;;;;18.84;100.00;98175.47;15276305;19;20015;-66
2023/07/16 02:14:49;;;;;;;2.13;1.00;;;;;;;18.84;100.00;98171.94;15276363;19;20027;-65
2023/07/16 02:20:21;;;;;;;2.20;1.00;;;;;;;18.81;100.00;98170.50;15270888;19;20033;-63
2023/07/16 02:25:46;;;;;;;1.38;0.90;;;;;;;18.81;100.00;98173.22;15279820;19;20412;-63
2023/07/16 02:31:10;;;;;;;1.27;0.70;;;;;;;18.80;100.00;98163.34;15277151;19;20085;-63
2023/07/16 02:36:38;;;;;;;1.60;0.80;;;;;;;18.79;100.00;98164.41;15275886;19;20026;-63
2023/07/16 02:42:02;;;;;;;3.08;0.70;;;;;;;18.76;100.00;98145.75;15277386;19;20094;-63
2023/07/16 02:47:28;;;;;;;1.05;0.90;;;;;;;18.75;100.00;98112.16;14766754;19;10000935;-63
2023/07/16 02:52:55;;;;;;;2.55;0.80;;;;;;;18.73;100.00;98106.09;15276409;19;20082;-65
2023/07/16 02:58:20;;;;;;;1.27;0.80;;;;;;;18.71;100.00;98097.28;15273771;19;20018;-63
2023/07/16 03:03:44;;;;;;;1.00;0.80;;;;;;;18.69;100.00;98077.56;15274340;19;20015;-63
2023/07/16 03:09:12;;;;;;;0.95;0.80;;;;;;;18.70;100.00;98092.06;15271795;19;20032;-66
2023/07/16 03:14:37;;;;;;;0.65;0.63;;;;;;;18.70;100.00;98101.06;15280583;19;20094;-65
2023/07/16 03:20:03;;;;;;;1.20;0.70;;;;;;;18.70;100.00;98106.53;15278333;19;20014;-63
2023/07/16 03:25:31;;;;;;;1.00;0.80;;;;;;;18.67;100.00;98142.44;15280505;19;20010;-65
2023/07/16 03:30:57;;;;;;;2.05;1.00;;;;;;;18.58;100.00;98198.34;15273177;19;20015;-65
2023/07/16 03:36:24;;;;;;;2.50;0.93;;;;;;;18.53;100.00;98226.28;15271128;19;20022;-64
2023/07/16 03:41:52;;;;;;;1.63;1.00;;;;;;;18.49;100.00;98260.47;15273291;19;20022;-65
2023/07/16 03:47:16;;;;;;;1.50;1.00;;;;;;;18.47;100.00;98271.63;15273457;19;20019;-64
2023/07/16 03:52:41;;;;;;;1.70;0.90;;;;;;;18.47;100.00;98293.44;15272927;19;20018;-65
2023/07/16 03:58:08;;;;;;;1.35;0.80;;;;;;;18.51;100.00;98298.47;15272620;19;20089;-64
2023/07/16 04:03:33;;;;;;;2.25;0.80;;;;;;;18.54;100.00;98287.09;15273623;19;20109;-64
2023/07/16 04:08:57;;;;;;;1.23;0.70;;;;;;;18.61;100.00;98268.84;15268509;19;20058;-64
2023/07/16 04:14:25;;;;;;;2.00;0.75;;;;;;;18.66;100.00;98266.28;15283747;19;20021;-64
2023/07/16 04:19:49;;;;;;;1.67;0.80;;;;;;;18.69;100.00;98257.66;15283879;19;20021;-64
2023/07/16 04:25:15;;;;;;;1.48;0.70;;;;;;;18.70;100.00;98262.06;15288722;19;20488;-64
2023/07/16 04:30:43;;;;;;;2.42;0.90;;;;;;;18.71;100.00;98271.94;15281541;19;20022;-64
2023/07/16 04:36:09;;;;;;;1.38;0.70;;;;;;;18.69;100.00;98282.22;15284349;19;20024;-65
2023/07/16 04:41:34;;;;;;;3.00;0.80;;;;;;;18.71;100.00;98295.63;15283278;19;20018;-65
2023/07/16 04:47:02;;;;;;;1.65;0.70;;;;;;;18.71;100.00;98285.56;15288123;19;20030;-64
2023/07/16 04:52:27;;;;;;;1.13;0.70;;;;;;;18.73;100.00;98280.75;15285519;19;20006;-64
2023/07/16 04:57:53;;;;;;;2.08;0.70;;;;;;;18.78;100.00;98271.91;15281788;19;20030;-64
2023/07/16 05:03:21;;;;;;;2.63;0.70;;;;;;;18.82;100.00;98266.84;15284887;19;20476;-63
2023/07/16 05:08:46;;;;;;;2.45;0.70;;;;;;;18.86;100.00;98248.97;15279575;19;20015;-64
2023/07/16 05:14:10;;;;;;;2.63;0.70;;;;;;;18.91;100.00;98265.50;15280905;19;20581;-64
2023/07/16 05:19:38;;;;;;;1.33;0.65;;;;;;;18.90;100.00;98270.16;15281011;19;20069;-64
2023/07/16 05:25:03;;;;;;;0.65;0.52;;;;;;;18.86;100.00;98282.56;15281376;19;20018;-64
2023/07/16 05:30:28;;;;;;;1.60;0.70;;;;;;;18.88;100.00;98302.28;15278930;19;20010;-64
2023/07/16 05:35:55;;;;;;;1.25;0.80;;;;;;;18.93;100.00;98287.97;15281523;19;20032;-63
2023/07/16 05:41:20;;;;;;;1.23;0.90;;;;;;;19.05;100.00;98277.25;15280127;19;20381;-65
2023/07/16 05:46:45;;;;;;;2.90;0.70;;;;;;;19.13;100.00;98265.19;15279748;19;20345;-64
2023/07/16 05:52:13;;;;;;;1.42;0.73;;;;;;;19.19;100.00;98234.28;15281946;19;20022;-62
2023/07/16 05:57:38;;;;;;;2.38;0.70;;;;;;;19.19;100.00;98239.75;15281097;19;20011;-64
2023/07/16 06:03:03;;;;;;;1.70;0.82;;;;;;;19.28;100.00;98223.94;15278364;19;20029;-64
2023/07/16 06:08:31;;;;;;;2.53;0.77;;;;;;;19.29;100.00;98245.53;15278620;19;20025;-61
2023/07/16 06:13:56;;;;;;;2.95;0.80;;;;;;;19.41;100.00;98248.38;15273347;19;20070;-62
2023/07/16 06:19:20;;;;;;;1.95;0.80;;;;;;;19.44;100.00;98253.41;15273329;19;20037;-59
2023/07/16 06:24:48;;;;;;;1.65;0.75;;;;;;;19.61;100.00;98253.66;15279347;19;20018;-61
2023/07/16 06:30:13;;;;;;;1.40;0.80;;;;;;;19.69;100.00;98250.69;15273119;19;20356;-60
2023/07/16 06:35:37;;;;;;;2.70;1.00;;;;;;;19.86;100.00;98255.56;15275707;19;20014;-60
2023/07/16 06:41:12;;;;;;;2.88;0.90;;;;;;;19.99;100.00;98252.72;15275132;19;20592;-61
2023/07/16 06:46:38;;;;;;;3.65;1.00;;;;;;;20.19;100.00;98251.63;15276036;19;20026;-62
2023/07/16 06:52:02;;;;;;;2.60;0.90;;;;;;;20.30;100.00;98266.47;15268447;19;20042;-62
2023/07/16 06:57:30;;;;;;;4.47;0.98;;;;;;;20.33;100.00;98261.38;15273916;19;20578;-60
2023/07/16 07:02:55;;;;;;;2.00;0.80;;;;;;;20.52;100.00;98266.00;15273122;19;20011;-61
2023/07/16 07:08:20;;;;;;;2.72;0.77;;;;;;;20.61;100.00;98256.41;15274500;19;20105;-63
2023/07/16 07:13:47;;;;;;;4.53;0.85;;;;;;;20.63;100.00;98252.38;15274066;19;20478;-62
2023/07/16 07:19:11;;;;;;;2.38;0.93;;;;;;;20.53;100.00;98252.06;15219197;19;20018;-61
2023/07/16 07:24:36;;;;;;;1.10;0.70;;;;;;;20.69;100.00;98249.75;15270421;19;20066;-63
2023/07/16 07:30:04;;;;;;;2.22;0.98;;;;;;;20.71;100.00;98240.25;15270098;19;20018;-63
2023/07/16 07:35:29;;;;;;;2.33;0.90;;;;;;;20.79;100.00;98244.59;15274630;19;20094;-63
2023/07/16 07:41:00;;;;;;;5.13;0.93;;;;;;;20.81;100.00;98247.94;15268495;19;20041;-62
2023/07/16 07:46:27;;;;;;;2.58;0.88;;;;;;;20.75;100.00;98257.09;15281443;19;20481;-62
2023/07/16 07:51:53;;;;;;;2.85;0.85;;;;;;;20.67;100.00;98241.78;15282503;19;20003;-63
2023/07/16 07:57:18;;;;;;;4.03;0.98;;;;;;;20.56;100.00;98251.59;15285696;19;20651;-61
2023/07/16 08:02:45;;;;;;;2.28;1.00;;;;;;;20.55;100.00;98254.59;15286709;19;20035;-63
2023/07/16 08:08:10;;;;;;;1.60;0.80;;;;;;;20.55;100.00;98252.69;15284313;19;20026;-64
2023/07/16 08:13:35;;;;;;;3.13;1.10;;;;;;;20.62;100.00;98258.06;15284901;19;20018;-65
2023/07/16 08:19:03;;;;;;;4.65;1.20;;;;;;;20.78;100.00;98262.09;15281322;19;20019;-65
2023/07/16 08:24:28;;;;;;;1.65;0.80;;;;;;;20.91;100.00;98261.91;15282710;19;20022;-65
2023/07/16 08:29:52;;;;;;;3.88;0.82;;;;;;;21.13;100.00;98266.84;15276903;19;21586;-66
2023/07/16 08:35:20;;;;;;;1.30;0.68;;;;;;;21.28;100.00;98284.75;15285115;19;20698;-66
2023/07/16 08:40:51;;;;;;;4.72;0.80;;;;;;;21.32;100.00;98283.25;15278046;19;20308;-66
2023/07/16 08:46:16;;;;;;;1.58;0.90;;;;;;;21.51;100.00;98273.84;15281815;19;20058;-66
2023/07/16 08:51:44;;;;;;;1.58;0.80;;;;;;;21.74;100.00;98274.97;15274175;19;20029;-64
2023/07/16 08:57:11;;;;;;;2.50;0.88;;;;;;;22.00;100.00;98273.66;15278828;19;20058;-65
2023/07/16 09:02:37;;;;;;;5.38;0.80;;;;;;;21.78;100.00;98275.31;15277773;19;20043;-64
2023/07/16 09:08:04;;;;;;;2.78;1.08;;;;;;;21.66;100.00;98283.56;15280364;19;20018;-64
2023/07/16 09:13:29;;;;;;;1.38;0.75;;;;;;;21.71;100.00;98280.91;15281509;19;20078;-65
2023/07/16 09:18:55;;;;;;;4.95;0.85;;;;;;;21.68;100.00;98278.69;15278643;19;20017;-64
2023/07/16 09:24:23;;;;;;;1.95;0.70;;;;;;;22.00;100.00;98292.03;15280266;19;20021;-62
2023/07/16 09:29:48;;;;;;;1.25;0.80;;;;;;;22.26;100.00;98292.63;15275484;19;20440;-63
2023/07/16 09:35:16;;;;;;;1.95;0.82;;;;;;;22.33;100.00;98287.81;15277562;19;20100;-64
2023/07/16 09:40:50;;;;;;;1.67;0.90;;;;;;;22.16;100.00;98287.72;15275927;19;20024;-63
2023/07/16 09:46:15;;;;;;;2.38;0.70;;;;;;;22.47;100.00;98281.03;15280296;19;20011;-63
2023/07/16 09:51:40;;;;;;;1.83;0.90;;;;;;;22.75;100.00;98306.00;15271757;19;20047;-63
2023/07/16 09:57:10;;;;;;;2.58;0.93;;;;;;;22.88;90.42;98285.66;15274699;19;20376;-64
2023/07/16 10:02:36;;;;;;;1.90;1.00;;;;;;;23.04;100.00;98298.59;15276970;19;20051;-64
2023/07/16 10:08:02;;;;;;;2.83;0.85;;;;;;;22.93;90.80;98296.75;15275777;19;20018;-64
2023/07/16 10:13:32;;;;;;;2.20;0.90;;;;;;;23.07;77.64;98308.25;15276667;19;20451;-63
2023/07/16 10:18:58;;;;;;;4.57;0.90;;;;;;;23.14;74.55;98302.63;15276291;19;20630;-62
2023/07/16 10:24:26;;;;;;;3.83;1.00;;;;;;;23.23;88.88;98301.16;15277286;19;20017;-62
2023/07/16 10:29:54;;;;;;;2.20;0.88;;;;;;;23.07;80.60;98303.63;15273588;19;20014;-61
2023/07/16 10:35:20;;;;;;;2.35;0.90;;;;;;;23.12;75.97;98299.28;15273729;19;20033;-65
2023/07/16 10:40:53;;;;;;;1.88;0.90;;;;;;;23.09;71.21;98304.22;15273693;19;20508;-64
2023/07/16 10:46:22;;;;;;;2.25;0.90;;;;;;;23.15;68.19;98298.78;15277136;19;20018;-66
2023/07/16 10:51:46;;;;;;;3.10;1.10;;;;;;;23.36;74.55;98305.53;15274282;19;20010;-64
2023/07/16 10:57:11;;;;;;;2.05;0.95;;;;;;;23.40;62.18;98276.47;15275582;19;20038;-61
2023/07/16 11:02:40;;;;;;;2.35;1.10;;;;;;;23.44;66.57;98291.38;15290745;19;20089;-63
2023/07/16 11:08:05;;;;;;;2.22;1.00;;;;;;;23.50;61.96;98284.03;15290579;19;20011;-63
2023/07/16 11:13:35;;;;;;;2.83;1.05;;;;;;;23.72;65.64;98300.66;15275392;19;20479;-64
2023/07/16 11:19:07;;;;;;;3.15;1.17;;;;;;;23.81;71.60;98281.81;15272788;19;20409;-63
2023/07/16 11:24:33;;;;;;;1.10;0.90;;;;;;;23.83;73.72;98276.88;15288748;19;20562;-64
2023/07/16 11:29:59;;;;;;;2.97;1.13;;;;;;;23.98;76.92;98279.88;15281607;19;20381;-64
2023/07/16 11:35:29;;;;;;;1.90;0.88;;;;;;;23.73;68.93;98294.06;15290039;19;20074;-62
2023/07/16 11:41:00;;;;;;;1.90;0.80;;;;;;;23.85;68.02;98299.47;15280471;19;20498;-63
2023/07/16 11:46:26;;;;;;;2.08;1.00;;;;;;;23.77;70.88;98280.63;15287792;19;20357;-62
2023/07/16 11:51:54;;;;;;;1.75;1.00;;;;;;;24.04;71.71;98271.72;15257765;19;20476;-62
2023/07/16 11:57:20;;;;;;;2.20;1.23;;;;;;;24.35;71.31;98278.47;15283798;19;20462;-63
2023/07/16 12:02:50;;;;;;;2.63;1.08;;;;;;;24.25;75.61;98286.59;15284950;19;20014;-64
2023/07/16 12:08:19;;;;;;;;;;;;;;;24.28;61.11;98278.69;15283545;19;20022;-62
2023/07/16 12:13:44;;;;;;;2.38;1.00;;;;;;;24.23;65.49;98303.38;15273943;19;19911;-65
2023/07/16 12:19:11;;;;;;;2.28;1.13;;;;;;;24.31;62.48;98302.91;15281219;19;20070;-62
2023/07/16 12:24:39;;;;;;;2.08;1.10;;;;;;;24.27;61.61;98290.78;15277527;19;20010;-62
2023/07/16 12:30:04;;;;;;;3.05;1.10;;;;;;;24.50;60.23;98274.25;15278436;19;20445;-65
2023/07/16 12:35:28;;;;;;;2.03;1.08;;;;;;;24.51;62.99;98273.16;15281069;19;20010;-63
2023/07/16 12:41:03;;;;;;;2.90;0.90;;;;;;;24.58;58.44;98271.88;15278241;19;20017;-64
2023/07/16 12:46:28;;;;;;;2.20;1.10;;;;;;;24.64;56.61;98285.72;15279252;19;20035;-63
2023/07/16 12:51:53;;;;;;;1.98;1.13;;;;;;;24.81;59.60;98281.00;15278985;19;20010;-63
2023/07/16 12:57:20;;;;;;;1.30;1.00;;;;;;;24.85;55.67;98290.41;15281953;19;20018;-63
2023/07/16 13:02:45;;;;;;;2.28;1.05;;;;;;;25.01;58.35;98274.88;15282974;19;20021;-62
2023/07/16 13:08:11;;;;;;;1.52;1.00;;;;;;;25.05;56.10;98280.69;15280786;19;20011;-64
2023/07/16 13:13:38;;;;;;;2.35;1.05;;;;;;;25.22;57.25;98284.19;15275684;19;20097;-62
2023/07/16 13:19:03;;;;;;;3.00;1.17;;;;;;;25.55;54.07;98262.16;15271463;19;20434;-62
2023/07/16 13:24:28;;;;;;;3.83;1.20;;;;;;;25.74;57.18;98287.41;15280433;19;20093;-62
2023/07/16 13:29:55;;;;;;;1.88;1.15;;;;;;;25.72;50.18;98289.59;15278251;19;20026;-64
2023/07/16 13:35:21;;;;;;;2.05;1.17;;;;;;;25.82;54.14;98277.81;15280650;19;20747;-64
2023/07/16 13:40:52;;;;;;;3.10;1.10;;;;;;;26.10;54.59;98278.59;15274228;19;20030;-62
2023/07/16 13:46:20;;;;;;;1.95;1.10;;;;;;;26.28;50.10;98285.59;15279348;19;20033;-62
2023/07/16 13:51:44;;;;;;;3.35;1.15;;;;;;;26.23;51.64;98289.13;15273404;19;20021;-62
2023/07/16 13:57:09;;;;;;;2.00;1.17;;;;;;;26.26;47.09;98304.34;15274340;19;20015;-63
2023/07/16 14:02:36;;;;;;;1.58;1.02;;;;;;;26.48;51.40;98281.25;15277256;19;20031;-62
2023/07/16 14:08:01;;;;;;;2.58;1.20;;;;;;;26.62;47.68;98279.69;15278097;19;20011;-63
2023/07/16 14:13:25;;;;;;;1.88;1.02;;;;;;;26.83;49.97;98280.59;15272327;19;20024;-63
2023/07/16 14:18:56;;;;;;;1.67;1.17;;;;;;;26.73;45.44;98277.75;15272830;19;20025;-66
2023/07/16 14:24:20;;;;;;;3.33;1.10;;;;;;;26.89;50.06;98278.66;15273259;19;20019;-67
2023/07/16 14:29:45;;;;;;;2.40;1.05;;;;;;;27.07;48.02;98272.66;15271021;19;20019;-61
2023/07/16 14:35:26;;;;;;;2.25;1.30;;;;;;;27.10;47.29;98278.75;15276543;19;20320;-64
2023/07/16 14:41:01;;;;;;;1.77;1.05;;;;;;;27.19;44.91;98272.38;15276570;19;20018;-68
2023/07/16 14:46:26;;;;;;;3.17;1.20;;;;;;;27.23;44.77;98280.94;15297935;19;20014;-65
2023/07/16 14:51:53;;;;;;;3.63;1.05;;;;;;;27.38;46.54;98285.69;15290057;19;20042;-63
2023/07/16 14:57:19;;;;;;;2.90;1.00;;;;;;;27.68;44.33;98273.84;15300301;19;20020;-64
2023/07/16 15:02:46;;;;;;;1.67;1.10;;;;;;;27.03;44.65;98279.81;15328929;19;20010;-59
2023/07/16 15:08:13;;;;;;;2.78;1.45;;;;;;;27.27;42.52;98275.72;15332902;19;20007;-63
2023/07/16 15:13:43;;;;;;;3.90;1.13;;;;;;;27.29;43.85;98268.81;15322191;19;20023;-64
2023/07/16 15:19:09;;;;;;;3.85;0.90;;;;;;;27.59;45.96;98266.34;15316843;19;20014;-63
2023/07/16 15:24:36;;;;;;;2.67;1.23;;;;;;;27.45;44.33;98263.31;15325971;19;20010;-64
2023/07/16 15:30:02;;;;;;;2.65;1.17;;;;;;;27.57;45.72;98261.13;15328564;19;20026;-66
2023/07/16 15:35:27;;;;;;;2.40;1.00;;;;;;;27.83;45.02;98263.84;15303326;19;20015;-65
2023/07/16 15:40:54;;;;;;;2.17;1.08;;;;;;;27.76;42.64;98274.38;15331181;19;20015;-62
2023/07/16 15:46:19;;;;;;;1.42;0.90;;;;;;;28.05;44.22;98266.31;15342053;19;20014;-63
2023/07/16 15:51:44;;;;;;;1.98;1.00;;;;;;;28.25;44.55;98271.00;15299127;19;20007;-65
2023/07/16 15:57:12;;;;;;;2.22;1.00;;;;;;;28.42;42.69;98258.72;15281112;19;20578;-68
2023/07/16 16:02:37;;;;;;;1.65;1.00;;;;;;;28.68;44.48;98255.84;15284188;19;20014;-67
2023/07/16 16:08:18;;;;;;;1.63;1.10;;;;;;;28.70;40.66;98261.94;15286589;19;20015;-62
2023/07/16 16:13:46;;;;;;;1.63;1.00;;;;;;;28.74;43.36;98263.09;15285476;19;20006;-60
2023/07/16 16:19:12;;;;;;;2.22;1.00;;;;;;;28.75;40.67;98259.19;15288367;19;20018;-62
2023/07/16 16:24:36;;;;;;;2.00;1.10;;;;;;;28.29;42.57;98260.19;15287707;19;20017;-66
2023/07/16 16:30:05;;;;;;;1.75;1.02;;;;;;;28.37;41.41;98262.34;15278920;19;20718;-64
2023/07/16 16:35:30;;;;;;;2.53;1.10;;;;;;;28.26;42.02;98256.03;15288397;19;20488;-64
2023/07/16 16:41:03;;;;;;;1.58;1.17;;;;;;;28.19;40.60;98261.03;15284589;19;20011;-64
2023/07/16 16:46:32;;;;;;;1.58;1.10;;;;;;;27.98;40.68;98274.91;15290361;19;20015;-59
2023/07/16 16:51:56;;;;;;;2.67;1.23;;;;;;;27.98;42.84;98276.84;15288974;19;20329;-57
2023/07/16 16:57:21;;;;;;;1.65;0.98;;;;;;;28.25;40.74;98270.16;15286345;19;20740;-56
2023/07/16 17:02:48;;;;;;;4.38;1.20;;;;;;;28.37;42.01;98267.09;15285700;19;20010;-62
2023/07/16 17:08:13;;;;;;;1.65;1.10;;;;;;;28.20;40.86;98271.00;15288071;19;20022;-61
2023/07/16 17:13:37;;;;;;;3.58;1.08;;;;;;;28.28;42.89;98269.59;15282983;19;20026;-62
2023/07/16 17:19:05;;;;;;;1.42;1.08;;;;;;;28.25;42.04;98284.84;15284310;19;20039;-55
2023/07/16 17:24:30;;;;;;;2.00;1.05;;;;;;;27.80;43.21;98286.56;15283976;19;20010;-57
2023/07/16 17:29:56;;;;;;;1.65;1.10;;;;;;;27.23;42.42;98278.19;15278899;19;20018;-52
2023/07/16 17:35:23;;;;;;;2.13;1.10;;;;;;;27.15;43.44;98284.25;15274471;19;20015;-57
2023/07/16 17:40:48;;;;;;;3.45;1.10;;;;;;;27.10;42.35;98284.28;15279515;19;20018;-51
2023/07/16 17:46:14;;;;;;;1.75;1.00;;;;;;;27.04;44.78;98284.25;15282950;19;20017;-53
2023/07/16 17:51:42;;;;;;;1.27;0.98;;;;;;;26.67;42.64;98287.16;15284172;19;20021;-54
2023/07/16 17:57:06;;;;;;;2.13;1.35;;;;;;;26.23;44.89;98293.84;15282367;19;20031;-55
2023/07/16 18:02:32;;;;;;;2.13;1.38;;;;;;;25.98;45.02;98290.63;15281598;19;20468;-55
2023/07/16 18:07:59;;;;;;;3.00;1.20;;;;;;;25.79;46.57;98292.97;15278040;19;20015;-55
2023/07/16 18:13:25;;;;;;;2.17;1.35;;;;;;;25.67;45.41;98292.31;15280762;19;20019;-59
2023/07/16 18:18:49;;;;;;;4.25;1.33;;;;;;;25.74;48.38;98292.94;15278801;19;20082;-54
2023/07/16 18:24:17;;;;;;;2.55;1.13;;;;;;;25.76;47.42;98295.41;15281860;19;20073;-54
2023/07/16 18:29:42;;;;;;;1.60;1.10;;;;;;;25.75;49.08;98294.59;15270518;19;21253;-54
2023/07/16 18:35:08;;;;;;;2.00;0.95;;;;;;;25.60;48.50;98299.97;15272132;19;20369;-60
2023/07/16 18:40:35;;;;;;;1.95;1.30;;;;;;;25.43;49.85;98298.19;15271247;19;20014;-53
2023/07/16 18:46:00;;;;;;;1.63;1.10;;;;;;;25.07;49.27;98308.84;15275559;19;20506;-52
2023/07/16 18:51:26;;;;;;;2.40;1.50;;;;;;;24.64;51.11;98310.50;15276149;19;20086;-59
2023/07/16 18:56:54;;;;;;;2.42;1.20;;;;;;;24.26;51.45;98315.78;15275665;19;20433;-60
2023/07/16 19:02:20;;;;;;;3.50;1.35;;;;;;;24.00;54.74;98315.41;15274036;19;20383;-62
2023/07/16 19:07:45;;;;;;;1.67;1.00;;;;;;;23.81;56.04;98320.31;15274205;19;20014;-61
2023/07/16 19:13:12;;;;;;;1.73;1.10;;;;;;;23.66;57.46;98320.88;15267620;19;20011;-59
2023/07/16 19:18:38;;;;;;;1.90;1.15;;;;;;;23.53;58.56;98327.56;15271088;19;20763;-61
2023/07/16 19:24:02;;;;;;;2.13;1.23;;;;;;;23.30;59.12;98334.84;15248832;19;20017;-60
2023/07/16 19:29:30;;;;;;;3.30;1.20;;;;;;;23.06;57.87;98334.91;15270108;19;20547;-61
2023/07/16 19:34:54;;;;;;;2.78;1.25;;;;;;;22.82;60.56;98352.56;15271376;19;20018;-61
2023/07/16 19:40:25;;;;;;;2.15;1.35;;;;;;;22.54;61.47;98367.88;15269593;19;20050;-58
2023/07/16 19:46:03;;;;;;;3.67;1.30;;;;;;;22.39;62.92;98368.34;15285407;19;20015;-62
2023/07/16 19:51:27;;;;;;;1.35;1.02;;;;;;;22.21;66.77;98361.94;15285274;19;20002;-59
2023/07/16 19:56:52;;;;;;;2.40;1.40;;;;;;;22.05;71.60;98363.44;15287989;19;20018;-60
2023/07/16 20:02:20;;;;;;;1.80;1.30;;;;;;;21.96;76.65;98359.41;15285768;19;20469;-59
2023/07/16 20:07:45;;;;;;;1.35;1.15;;;;;;;21.84;77.30;98357.47;15279004;19;20397;-60
2023/07/16 20:13:09;;;;;;;1.48;1.27;;;;;;;21.72;79.41;98358.53;15275834;19;20015;-58
2023/07/16 20:18:30;;;;;;;1.67;1.30;;;;;;;21.58;80.14;98369.69;15266708;19;20029;-60
2023/07/16 20:23:56;;;;;;;3.05;1.40;;;;;;;21.47;81.37;98371.31;15280211;19;20021;-61
2023/07/16 20:29:20;;;;;;;3.05;1.40;;;;;;;21.37;84.87;98368.31;15280664;19;20029;-56
2023/07/16 20:34:48;;;;;;;2.33;1.30;;;;;;;21.27;86.05;98374.38;15279724;19;20022;-60
2023/07/16 20:40:20;;;;;;;2.13;1.35;;;;;;;21.16;92.05;98383.38;15278976;19;20023;-59
2023/07/16 20:45:47;;;;;;;2.92;1.27;;;;;;;21.01;97.10;98381.88;15284154;19;20484;-59
2023/07/16 20:51:14;;;;;;;2.10;1.33;;;;;;;20.84;96.96;98381.66;15279040;19;20337;-58
2023/07/16 20:56:41;;;;;;;2.97;1.50;;;;;;;20.74;95.69;98386.81;15277474;19;20025;-57
2023/07/16 21:02:05;;;;;;;2.15;1.10;;;;;;;20.67;99.57;98386.03;15281437;19;20021;-58
2023/07/16 21:07:33;;;;;;;1.92;1.25;;;;;;;20.53;100.00;98385.34;15280820;19;20025;-57
2023/07/16 21:12:59;;;;;;;2.00;1.30;;;;;;;20.38;100.00;98380.25;15279451;19;20015;-58
2023/07/16 21:18:24;;;;;;;2.42;1.35;;;;;;;20.28;100.00;98375.28;15281652;19;20014;-59
2023/07/16 21:23:51;;;;;;;2.38;1.30;;;;;;;20.19;100.00;98385.66;15276461;19;20031;-58
2023/07/16 21:29:16;;;;;;;2.13;1.27;;;;;;;20.08;100.00;98380.94;15277994;19;20011;-58
2023/07/16 21:34:40;;;;;;;1.63;1.20;;;;;;;19.97;100.00;98386.06;15276311;19;20016;-59
2023/07/16 21:40:09;;;;;;;3.92;1.50;;;;;;;19.87;100.00;98393.94;15276833;19;20054;-58
2023/07/16 21:45:33;;;;;;;2.58;1.27;;;;;;;19.80;100.00;98398.59;15279650;19;20535;-56
2023/07/16 21:51:00;;;;;;;3.17;1.40;;;;;;;19.70;100.00;98394.44;15278561;19;20006;-59
2023/07/16 21:56:28;;;;;;;1.60;1.17;;;;;;;19.65;100.00;98394.28;15272993;19;20014;-60
2023/07/16 22:01:53;;;;;;;2.42;1.25;;;;;;;19.58;100.00;98398.94;15276573;19;20022;-61
2023/07/16 22:07:18;;;;;;;2.50;1.63;;;;;;;19.51;100.00;98401.75;15275650;19;20010;-59
2023/07/16 22:12:46;;;;;;;2.28;1.20;;;;;;;19.42;100.00;98402.22;15274859;19;20018;-60
2023/07/16 22:18:10;;;;;;;3.70;1.35;;;;;;;19.31;100.00;98418.25;15274075;19;20028;-60
2023/07/16 22:23:35;;;;;;;2.95;1.30;;;;;;;19.20;100.00;98416.19;15274792;19;20086;-60
2023/07/16 22:29:03;;;;;;;2.60;1.30;;;;;;;19.04;100.00;98421.09;15274296;19;20093;-58
2023/07/16 22:34:28;;;;;;;2.35;1.40;;;;;;;18.94;100.00;98415.25;15271539;19;20047;-60
2023/07/16 22:39:59;;;;;;;1.90;1.30;;;;;;;18.84;100.00;98420.31;15273399;19;20053;-59
2023/07/16 22:45:27;;;;;;;1.98;1.25;;;;;;;18.77;100.00;98423.06;15275329;19;20007;-60
2023/07/16 22:50:53;;;;;;;2.25;1.17;;;;;;;18.71;100.00;98435.66;15266510;19;20019;-58
2023/07/16 22:56:18;;;;;;;1.95;1.20;;;;;;;18.69;100.00;98437.75;15266854;19;20017;-56
2023/07/16 23:01:45;;;;;;;1.73;1.30;;;;;;;18.67;100.00;98439.03;15273374;19;20018;-60
2023/07/16 23:07:10;;;;;;;3.05;1.20;;;;;;;18.65;100.00;98441.97;15274463;19;20010;-60
2023/07/16 23:12:35;;;;;;;2.63;1.40;;;;;;;18.59;100.00;98448.28;15268740;19;20021;-59
2023/07/16 23:18:02;;;;;;;2.03;1.38;;;;;;;18.55;100.00;98445.16;15270273;19;20014;-57
2023/07/16 23:23:26;;;;;;;2.33;1.40;;;;;;;18.52;100.00;98442.00;15271608;19;20029;-58
2023/07/16 23:28:51;;;;;;;1.55;1.17;;;;;;;18.52;100.00;98442.84;15267828;19;20007;-57
2023/07/16 23:34:18;;;;;;;2.47;1.48;;;;;;;18.51;100.00;98445.78;15272120;19;20346;-58
2023/07/16 23:39:50;;;;;;;2.47;1.30;;;;;;;18.47;100.00;98437.16;15266486;19;20030;-57
2023/07/16 23:45:10;;;;;;;2.53;1.45;;;;;;;18.43;100.00;98439.47;15270464;19;20081;-58
2023/07/16 23:50:38;;;;;;;2.40;1.30;;;;;;;18.38;100.00;98431.13;15263717;19;20090;-58
2023/07/16 23:56:02;;;;;;;2.20;1.40;;;;;;;18.35;100.00;98425.22;15265261;19;20026;-60
